createdAt,value
2023-05-02T00:02:41.412Z,1.20
2023-05-02T00:06:06.122Z,1.20
2023-05-02T00:09:30.189Z,1.30
2023-05-02T00:12:55.131Z,1.30
2023-05-02T00:16:20.541Z,1.27
2023-05-02T00:19:45.241Z,1.52
2023-05-02T00:23:09.669Z,1.50
2023-05-02T00:26:33.910Z,1.20
2023-05-02T00:29:58.916Z,1.43
2023-05-02T00:33:25.016Z,1.60
2023-05-02T00:36:49.099Z,1.33
2023-05-02T00:40:14.537Z,1.30
2023-05-02T00:43:40.069Z,1.25
2023-05-02T00:47:04.775Z,1.83
2023-05-02T00:50:30.907Z,1.40
2023-05-02T00:53:55.793Z,2.05
2023-05-02T00:57:20.268Z,1.45
2023-05-02T01:00:51.426Z,1.40
2023-05-02T01:04:22.768Z,1.20
2023-05-02T01:08:12.847Z,1.30
2023-05-02T01:11:40.299Z,1.70
2023-05-02T01:15:06.465Z,1.67
2023-05-02T01:18:32.800Z,1.23
2023-05-02T01:21:59.917Z,1.30
2023-05-02T01:25:30.213Z,1.50
2023-05-02T01:29:02.701Z,1.42
2023-05-02T01:32:27.198Z,1.50
2023-05-02T01:35:52.500Z,1.40
2023-05-02T01:39:18.198Z,1.27
2023-05-02T01:42:43.022Z,1.83
2023-05-02T01:46:09.791Z,1.30
2023-05-02T01:49:35.768Z,1.95
2023-05-02T01:52:59.985Z,1.50
2023-05-02T01:56:26.182Z,1.63
2023-05-02T01:59:50.594Z,1.52
2023-05-02T02:03:17.816Z,1.70
2023-05-02T02:06:43.921Z,2.10
2023-05-02T02:10:09.406Z,1.92
2023-05-02T02:13:36.548Z,1.80
2023-05-02T02:17:01.197Z,2.08
2023-05-02T02:20:27.802Z,1.90
2023-05-02T02:23:51.996Z,2.00
2023-05-02T02:27:17.030Z,2.30
2023-05-02T02:30:41.492Z,2.03
2023-05-02T02:34:06.087Z,1.90
2023-05-02T02:37:32.995Z,1.92
2023-05-02T02:40:58.263Z,2.00
2023-05-02T02:44:38.922Z,1.90
2023-05-02T02:48:08.689Z,1.87
2023-05-02T02:51:35.544Z,2.05
2023-05-02T02:55:06.736Z,2.12
2023-05-02T02:58:34.495Z,2.10
2023-05-02T03:02:03.163Z,2.33
2023-05-02T03:05:27.505Z,2.10
2023-05-02T03:08:53.377Z,2.28
2023-05-02T03:12:21.599Z,2.10
2023-05-02T03:16:16.547Z,2.10
2023-05-02T03:19:40.804Z,2.10
2023-05-02T03:23:05.589Z,2.47
2023-05-02T03:26:30.003Z,2.25
2023-05-02T03:29:56.204Z,2.60
2023-05-02T03:33:20.931Z,2.03
2023-05-02T03:36:46.081Z,2.20
2023-05-02T03:40:11.490Z,2.20
2023-05-02T03:43:36.072Z,2.55
2023-05-02T03:47:01.688Z,2.55
2023-05-02T03:50:26.886Z,2.58
2023-05-02T03:53:51.549Z,2.50
2023-05-02T03:57:16.075Z,2.63
2023-05-02T04:00:40.390Z,2.97
2023-05-02T04:04:07.209Z,2.60
2023-05-02T04:07:32.253Z,2.35
2023-05-02T04:10:58.168Z,2.50
2023-05-02T04:14:23.062Z,2.53
2023-05-02T04:17:48.130Z,2.60
2023-05-02T04:21:14.191Z,2.58
2023-05-02T04:24:39.895Z,3.00
2023-05-02T04:28:05.731Z,2.83
2023-05-02T04:31:30.845Z,2.43
2023-05-02T04:34:55.343Z,2.45
2023-05-02T04:38:21.998Z,3.08
2023-05-02T04:41:46.839Z,2.37
2023-05-02T04:45:12.776Z,3.12
2023-05-02T04:48:42.409Z,2.90
2023-05-02T04:52:07.732Z,2.70
2023-05-02T04:55:33.166Z,3.35
2023-05-02T04:58:57.896Z,2.80
2023-05-02T05:02:22.456Z,2.58
2023-05-02T05:05:47.433Z,2.50
2023-05-02T05:09:11.689Z,2.62
2023-05-02T05:12:37.994Z,3.17
2023-05-02T05:16:02.421Z,2.90
2023-05-02T05:19:29.112Z,2.83
2023-05-02T05:22:54.033Z,2.47
2023-05-02T05:26:19.460Z,2.62
2023-05-02T05:29:45.378Z,2.80
2023-05-02T05:33:10.564Z,2.40
2023-05-02T05:36:35.503Z,2.72
2023-05-02T05:40:00.884Z,2.10
2023-05-02T05:43:25.219Z,2.65
2023-05-02T05:46:51.295Z,2.50
2023-05-02T05:50:16.963Z,3.47
2023-05-02T05:53:43.561Z,3.10
2023-05-02T05:57:09.122Z,3.10
2023-05-02T06:00:36.272Z,3.20
2023-05-02T06:04:03.427Z,3.37
2023-05-02T06:07:28.501Z,2.87
2023-05-02T06:10:53.134Z,3.30
2023-05-02T06:14:17.036Z,3.33
2023-05-02T06:17:42.841Z,2.90
2023-05-02T06:21:08.674Z,2.85
2023-05-02T06:24:33.487Z,2.95
2023-05-02T06:27:57.561Z,3.17
2023-05-02T06:31:21.864Z,3.00
2023-05-02T06:34:46.647Z,2.60
2023-05-02T06:38:13.001Z,2.90
2023-05-02T06:41:37.158Z,3.37
2023-05-02T06:45:02.215Z,2.75
2023-05-02T06:48:25.972Z,2.97
2023-05-02T06:51:50.447Z,3.10
2023-05-02T06:55:16.262Z,3.28
2023-05-02T06:58:40.966Z,3.35
2023-05-02T07:02:05.673Z,3.60
2023-05-02T07:05:31.604Z,2.57
2023-05-02T07:08:55.844Z,2.75
2023-05-02T07:12:22.851Z,2.87
2023-05-02T07:15:46.990Z,2.70
2023-05-02T07:19:12.569Z,2.72
2023-05-02T07:22:37.977Z,3.00
2023-05-02T07:26:06.214Z,2.75
2023-05-02T07:29:32.571Z,2.90
2023-05-02T07:33:00.284Z,2.80
2023-05-02T07:36:25.145Z,2.75
2023-05-02T07:39:51.415Z,2.33
2023-05-02T07:43:17.135Z,2.60
2023-05-02T07:46:44.007Z,2.92
2023-05-02T07:50:10.206Z,2.75
2023-05-02T07:53:36.071Z,3.20
2023-05-02T07:57:04.099Z,2.60
2023-05-02T08:00:31.103Z,2.95
2023-05-02T08:03:57.979Z,2.35
2023-05-02T08:07:23.327Z,2.50
2023-05-02T08:10:48.477Z,2.62
2023-05-02T08:14:13.556Z,2.40
2023-05-02T08:17:39.843Z,2.10
2023-05-02T08:21:07.801Z,2.70
2023-05-02T08:24:33.343Z,2.45
2023-05-02T08:27:57.819Z,2.60
2023-05-02T08:31:23.652Z,2.27
2023-05-02T08:34:49.316Z,2.30
2023-05-02T08:38:16.379Z,3.10
2023-05-02T08:41:41.410Z,2.20
2023-05-02T08:45:07.805Z,1.80
2023-05-02T08:48:32.162Z,2.00
2023-05-02T08:51:57.771Z,2.78
2023-05-02T08:55:28.294Z,2.22
2023-05-02T08:58:54.579Z,2.08
2023-05-02T09:02:23.036Z,2.20
2023-05-02T09:05:47.817Z,2.13
2023-05-02T09:09:13.411Z,2.33
2023-05-02T09:12:40.062Z,2.40
2023-05-02T09:16:05.803Z,2.20
2023-05-02T09:19:31.863Z,2.33
2023-05-02T09:22:57.167Z,2.07
2023-05-02T09:26:22.675Z,2.42
2023-05-02T09:29:49.380Z,2.20
2023-05-02T09:33:15.515Z,1.98
2023-05-02T09:36:43.262Z,2.10
2023-05-02T09:40:09.486Z,1.90
2023-05-02T09:43:32.952Z,2.30
2023-05-02T09:47:01.162Z,2.30
2023-05-02T09:50:35.727Z,2.50
2023-05-02T09:54:02.356Z,2.40
2023-05-02T09:57:42.113Z,2.47
2023-05-02T10:01:07.837Z,2.85
2023-05-02T10:04:37.133Z,2.53
2023-05-02T10:08:01.159Z,2.62
2023-05-02T10:11:33.950Z,2.80
2023-05-02T10:15:01.797Z,2.67
2023-05-02T10:18:30.240Z,2.60
2023-05-02T10:21:56.405Z,2.60
2023-05-02T10:25:21.289Z,2.30
2023-05-02T10:28:46.237Z,2.97
2023-05-02T10:32:15.961Z,3.00
2023-05-02T10:35:40.322Z,2.80
2023-05-02T10:39:06.552Z,2.72
2023-05-02T10:42:31.441Z,2.70
2023-05-02T10:45:56.345Z,3.12
2023-05-02T10:49:27.685Z,2.13
2023-05-02T10:52:52.464Z,2.40
2023-05-02T10:56:23.254Z,2.50
2023-05-02T10:59:47.595Z,2.37
2023-05-02T11:03:12.410Z,2.30
2023-05-02T11:06:37.998Z,2.33
2023-05-02T11:10:28.941Z,2.33
2023-05-02T11:13:54.150Z,2.00
2023-05-02T11:17:21.339Z,2.40
2023-05-02T11:20:45.084Z,1.87
2023-05-02T11:24:40.587Z,2.13
2023-05-02T11:28:07.026Z,2.37
2023-05-02T11:31:58.073Z,2.00
2023-05-02T11:35:23.323Z,2.30
2023-05-02T11:38:47.289Z,1.87
2023-05-02T11:42:11.855Z,1.83
2023-05-02T11:45:36.727Z,2.10
2023-05-02T11:49:03.403Z,2.10
2023-05-02T11:52:27.275Z,2.37
2023-05-02T11:55:52.386Z,2.03
2023-05-02T11:59:17.039Z,2.10
2023-05-02T12:02:41.952Z,2.30
2023-05-02T12:06:15.253Z,2.37
2023-05-02T12:09:40.660Z,2.33
2023-05-02T12:13:07.937Z,1.70
2023-05-02T12:16:33.037Z,1.83
2023-05-02T12:19:57.723Z,1.90
2023-05-02T12:23:26.712Z,2.15
2023-05-02T12:26:53.169Z,1.80
2023-05-02T12:30:28.232Z,1.90
2023-05-02T12:33:53.082Z,2.20
2023-05-02T12:37:24.516Z,2.22
2023-05-02T12:40:52.652Z,2.85
2023-05-02T12:44:19.563Z,2.17
2023-05-02T12:47:48.843Z,2.30
2023-05-02T12:51:24.876Z,1.97
2023-05-02T12:54:50.197Z,1.98
2023-05-02T12:58:14.928Z,2.20
2023-05-02T13:01:38.513Z,2.22
2023-05-02T13:05:02.129Z,1.73
2023-05-02T13:08:26.628Z,2.30
2023-05-02T13:11:52.346Z,1.65
2023-05-02T13:15:24.773Z,1.80
2023-05-02T13:18:50.440Z,1.90
2023-05-02T13:22:17.531Z,2.03
2023-05-02T13:25:41.542Z,2.20
2023-05-02T13:29:05.125Z,2.30
2023-05-02T13:32:30.166Z,2.30
2023-05-02T13:35:54.319Z,2.47
2023-05-02T13:39:17.474Z,2.50
2023-05-02T13:42:43.750Z,2.17
2023-05-02T13:46:08.468Z,1.85
2023-05-02T13:49:35.288Z,2.40
2023-05-02T13:53:01.369Z,1.87
2023-05-02T13:56:26.101Z,2.30
2023-05-02T13:59:50.248Z,2.30
2023-05-02T14:03:15.595Z,2.37
2023-05-02T14:06:41.804Z,2.28
2023-05-02T14:10:05.917Z,2.75
2023-05-02T14:13:29.404Z,2.55
2023-05-02T14:16:53.084Z,2.00
2023-05-02T14:20:17.595Z,2.50
2023-05-02T14:23:44.109Z,2.33
2023-05-02T14:27:13.418Z,2.03
2023-05-02T14:30:38.137Z,2.40
2023-05-02T14:34:03.383Z,2.10
2023-05-02T14:37:27.959Z,2.33
2023-05-02T14:40:54.528Z,2.70
2023-05-02T14:44:18.994Z,2.40
2023-05-02T14:47:43.840Z,2.60
2023-05-02T14:51:08.487Z,2.60
2023-05-02T14:54:33.038Z,2.50
2023-05-02T14:57:58.923Z,2.97
2023-05-02T15:01:25.840Z,2.50
2023-05-02T15:04:51.303Z,2.35
2023-05-02T15:08:17.103Z,2.07
2023-05-02T15:11:41.899Z,2.33
2023-05-02T15:15:09.513Z,4.43
2023-05-02T15:18:34.931Z,2.60
2023-05-02T15:22:00.703Z,2.28
2023-05-02T15:25:24.688Z,2.33
2023-05-02T15:28:50.289Z,2.10
2023-05-02T15:32:16.212Z,2.50
2023-05-02T15:35:41.029Z,2.92
2023-05-02T15:39:06.670Z,2.90
2023-05-02T15:42:33.862Z,2.10
2023-05-02T15:46:10.024Z,2.85
2023-05-02T15:49:37.055Z,2.95
2023-05-02T15:53:01.755Z,2.20
2023-05-02T15:56:26.049Z,2.30
2023-05-02T15:59:50.447Z,2.17
2023-05-02T16:03:14.796Z,1.92
2023-05-02T16:10:33.107Z,2.03
2023-05-02T16:13:57.769Z,2.28
2023-05-02T16:17:22.160Z,1.90
2023-05-02T16:20:48.326Z,2.25
2023-05-02T16:24:13.792Z,2.37
2023-05-02T16:27:38.403Z,2.00
2023-05-02T16:31:11.612Z,2.20
2023-05-02T16:34:36.128Z,2.20
2023-05-02T16:38:00.630Z,2.10
2023-05-02T16:41:27.241Z,2.35
2023-05-02T16:44:51.770Z,1.90
2023-05-02T16:48:17.076Z,2.00
2023-05-02T16:51:41.575Z,2.23
2023-05-02T16:55:06.829Z,2.08
2023-05-02T16:58:32.156Z,2.28
2023-05-02T17:01:57.362Z,2.55
2023-05-02T17:05:23.041Z,2.33
2023-05-02T17:08:47.526Z,2.00
2023-05-02T17:12:12.117Z,1.87
2023-05-02T17:15:40.390Z,2.30
2023-05-02T17:19:04.431Z,2.12
2023-05-02T17:22:28.765Z,2.40
2023-05-02T17:25:53.825Z,2.63
2023-05-02T17:29:18.075Z,2.40
2023-05-02T17:32:43.805Z,2.30
2023-05-02T17:36:08.676Z,2.25
2023-05-02T17:39:33.360Z,2.45
2023-05-02T17:42:59.623Z,4.03
2023-05-02T17:46:24.347Z,3.28
2023-05-02T17:49:51.830Z,3.35
2023-05-02T17:53:16.624Z,3.42
2023-05-02T17:56:41.193Z,3.72
2023-05-02T18:00:08.502Z,3.60
2023-05-02T18:03:34.418Z,3.78
2023-05-02T18:07:02.123Z,3.80
2023-05-02T18:10:29.820Z,3.75
2023-05-02T18:13:55.707Z,4.28
2023-05-02T18:17:21.371Z,4.50
2023-05-02T18:20:51.792Z,3.70
2023-05-02T18:24:17.950Z,4.05
2023-05-02T18:27:42.036Z,4.30
2023-05-02T18:31:06.957Z,4.15
2023-05-02T18:34:36.250Z,5.23
2023-05-02T18:38:03.894Z,4.78
2023-05-02T18:41:29.796Z,5.12
2023-05-02T18:44:54.504Z,4.50
2023-05-02T18:48:20.460Z,5.20
2023-05-02T18:51:46.217Z,4.60
2023-05-02T18:55:12.114Z,4.53
2023-05-02T18:58:44.309Z,4.43
2023-05-02T19:02:09.134Z,4.07
2023-05-02T19:05:35.205Z,4.55
2023-05-02T19:09:01.122Z,4.93
2023-05-02T19:12:27.576Z,4.07
2023-05-02T19:15:53.976Z,4.47
2023-05-02T19:19:19.733Z,5.75
2023-05-02T19:22:44.636Z,6.20
2023-05-02T19:26:13.728Z,5.10
2023-05-02T19:29:38.871Z,4.47
2023-05-02T19:33:07.669Z,4.85
2023-05-02T19:36:32.891Z,5.03
2023-05-02T19:39:59.144Z,4.82
2023-05-02T19:43:23.816Z,4.60
2023-05-02T19:46:50.125Z,4.85
2023-05-02T19:50:16.925Z,4.65
2023-05-02T19:53:41.666Z,3.80
2023-05-02T19:57:06.606Z,4.03
2023-05-02T20:00:31.755Z,3.37
2023-05-02T20:03:58.547Z,3.85
2023-05-02T20:07:25.108Z,4.12
2023-05-02T20:10:52.455Z,3.70
2023-05-02T20:14:18.838Z,4.15
2023-05-02T20:17:44.605Z,3.90
2023-05-02T20:21:13.012Z,4.12
2023-05-02T20:24:40.300Z,4.30
2023-05-02T20:28:04.997Z,3.37
2023-05-02T20:31:29.899Z,3.87
2023-05-02T20:34:53.857Z,3.67
2023-05-02T20:38:19.577Z,3.50
2023-05-02T20:41:45.816Z,3.60
2023-05-02T20:45:12.842Z,4.18
2023-05-02T20:48:36.855Z,3.55
2023-05-02T20:52:06.281Z,3.40
2023-05-02T20:55:31.017Z,3.45
2023-05-02T20:58:58.256Z,3.50
2023-05-02T21:02:22.218Z,3.50
2023-05-02T21:05:47.069Z,3.70
2023-05-02T21:09:11.295Z,3.87
2023-05-02T21:12:35.611Z,3.95
2023-05-02T21:16:01.267Z,3.95
2023-05-02T21:19:25.846Z,3.45
2023-05-02T21:22:49.750Z,3.70
2023-05-02T21:26:14.180Z,3.80
2023-05-02T21:29:38.451Z,3.60
2023-05-02T21:33:04.605Z,4.18
2023-05-02T21:36:28.828Z,3.80
2023-05-02T21:39:53.250Z,3.87
2023-05-02T21:43:17.954Z,4.10
2023-05-02T21:46:42.594Z,3.80
2023-05-02T21:50:12.198Z,3.95
2023-05-02T21:53:37.616Z,4.28
2023-05-02T21:57:03.389Z,3.62
2023-05-02T22:00:28.015Z,3.43
2023-05-02T22:03:52.624Z,3.72
2023-05-02T22:07:17.917Z,4.12
2023-05-02T22:10:43.545Z,3.58
2023-05-02T22:14:08.556Z,4.10
2023-05-02T22:17:34.202Z,3.87
2023-05-02T22:20:59.910Z,4.15
2023-05-02T22:24:27.069Z,4.22
2023-05-02T22:27:51.044Z,4.40
2023-05-02T22:31:15.852Z,4.50
2023-05-02T22:34:40.631Z,4.20
2023-05-02T22:38:05.358Z,4.62
2023-05-02T22:41:30.671Z,4.65
2023-05-02T22:44:56.559Z,4.90
2023-05-02T22:48:21.045Z,4.55
2023-05-02T22:51:47.256Z,4.77
2023-05-02T22:55:12.138Z,5.00
2023-05-02T22:58:37.860Z,4.95
2023-05-02T23:02:01.879Z,4.68
2023-05-02T23:05:26.448Z,4.87
2023-05-02T23:08:50.774Z,4.83
2023-05-02T23:12:15.276Z,4.43
2023-05-02T23:15:42.042Z,4.65
2023-05-02T23:19:07.052Z,4.70
2023-05-02T23:22:31.492Z,4.78
2023-05-02T23:25:55.617Z,4.80
2023-05-02T23:29:19.390Z,5.35
2023-05-02T23:32:45.603Z,5.22
2023-05-02T23:36:10.468Z,5.32
2023-05-02T23:39:34.925Z,4.95
2023-05-02T23:42:58.776Z,4.70
2023-05-02T23:46:22.865Z,5.20
2023-05-02T23:49:48.450Z,5.10
2023-05-02T23:53:12.890Z,4.90
2023-05-02T23:56:36.675Z,5.00
